sensor_id;sensor_type;location;lat;lon;timestamp;pressure;altitude;pressure_sealevel;temperature;humidity
78064;BME280;67429;51.596;-3.264;2023-09-19T00:00:03;98613.49;;;15.22;52.13
78064;BME280;67429;51.596;-3.264;2023-09-19T00:02:27;98604.02;;;14.21;54.27
78064;BME280;67429;51.596;-3.264;2023-09-19T00:04:53;98605.57;;;14.71;52.98
78064;BME280;67429;51.596;-3.264;2023-09-19T00:07:18;98609.12;;;14.79;52.29
78064;BME280;67429;51.596;-3.264;2023-09-19T00:09:44;98606.13;;;14.64;52.63
78064;BME280;67429;51.596;-3.264;2023-09-19T00:12:10;98598.09;;;14.82;52.11
78064;BME280;67429;51.596;-3.264;2023-09-19T00:14:35;98591.84;;;14.02;53.64
78064;BME280;67429;51.596;-3.264;2023-09-19T00:17:00;98595.50;;;13.63;55.42
78064;BME280;67429;51.596;-3.264;2023-09-19T00:19:26;98595.20;;;13.52;55.21
78064;BME280;67429;51.596;-3.264;2023-09-19T00:21:51;98594.45;;;14.73;53.34
78064;BME280;67429;51.596;-3.264;2023-09-19T00:24:17;98588.57;;;15.56;51.60
78064;BME280;67429;51.596;-3.264;2023-09-19T00:26:42;98589.25;;;15.22;52.48
78064;BME280;67429;51.596;-3.264;2023-09-19T00:29:07;98597.74;;;14.77;52.86
78064;BME280;67429;51.596;-3.264;2023-09-19T00:31:33;98592.79;;;14.27;54.50
78064;BME280;67429;51.596;-3.264;2023-09-19T00:33:58;98594.96;;;14.03;56.11
78064;BME280;67429;51.596;-3.264;2023-09-19T00:36:25;98594.11;;;13.06;59.24
78064;BME280;67429;51.596;-3.264;2023-09-19T00:38:50;98591.87;;;11.96;63.72
78064;BME280;67429;51.596;-3.264;2023-09-19T00:41:15;98585.72;;;11.71;65.19
78064;BME280;67429;51.596;-3.264;2023-09-19T00:43:40;98593.16;;;12.59;63.60
78064;BME280;67429;51.596;-3.264;2023-09-19T00:46:06;98593.04;;;13.07;61.56
78064;BME280;67429;51.596;-3.264;2023-09-19T00:48:31;98592.87;;;13.57;59.38
78064;BME280;67429;51.596;-3.264;2023-09-19T00:51:02;98585.35;;;13.90;58.76
78064;BME280;67429;51.596;-3.264;2023-09-19T00:53:23;98586.63;;;13.52;60.35
78064;BME280;67429;51.596;-3.264;2023-09-19T00:55:48;98577.16;;;13.06;61.03
78064;BME280;67429;51.596;-3.264;2023-09-19T00:58:14;98585.01;;;12.82;61.18
78064;BME280;67429;51.596;-3.264;2023-09-19T01:00:38;98583.97;;;13.51;59.91
78064;BME280;67429;51.596;-3.264;2023-09-19T01:03:05;98580.58;;;13.66;59.15
78064;BME280;67429;51.596;-3.264;2023-09-19T01:05:29;98580.56;;;12.94;60.79
78064;BME280;67429;51.596;-3.264;2023-09-19T01:07:55;98584.45;;;13.25;60.59
78064;BME280;67429;51.596;-3.264;2023-09-19T01:10:21;98587.80;;;13.89;59.14
78064;BME280;67429;51.596;-3.264;2023-09-19T01:12:54;98583.69;;;13.25;60.49
78064;BME280;67429;51.596;-3.264;2023-09-19T01:15:19;98587.32;;;12.46;62.03
78064;BME280;67429;51.596;-3.264;2023-09-19T01:17:45;98591.30;;;12.73;61.67
78064;BME280;67429;51.596;-3.264;2023-09-19T01:20:17;98590.97;;;13.76;59.88
78064;BME280;67429;51.596;-3.264;2023-09-19T01:22:33;98594.77;;;14.25;58.62
78064;BME280;67429;51.596;-3.264;2023-09-19T01:25:11;98598.72;;;14.20;57.59
78064;BME280;67429;51.596;-3.264;2023-09-19T01:27:39;98593.87;;;13.35;60.24
78064;BME280;67429;51.596;-3.264;2023-09-19T01:29:46;98595.08;;;13.75;59.68
78064;BME280;67429;51.596;-3.264;2023-09-19T01:32:13;98589.87;;;14.20;58.11
78064;BME280;67429;51.596;-3.264;2023-09-19T01:34:46;98583.25;;;12.76;62.26
78064;BME280;67429;51.596;-3.264;2023-09-19T01:37:02;98579.61;;;13.39;61.20
78064;BME280;67429;51.596;-3.264;2023-09-19T01:39:28;98581.22;;;13.86;59.72
78064;BME280;67429;51.596;-3.264;2023-09-19T01:41:58;98579.43;;;13.72;60.44
78064;BME280;67429;51.596;-3.264;2023-09-19T01:44:28;98577.37;;;14.30;58.22
78064;BME280;67429;51.596;-3.264;2023-09-19T01:46:44;98579.60;;;14.11;59.34
78064;BME280;67429;51.596;-3.264;2023-09-19T01:49:30;98580.09;;;14.90;57.80
78064;BME280;67429;51.596;-3.264;2023-09-19T01:51:40;98571.22;;;14.92;56.77
78064;BME280;67429;51.596;-3.264;2023-09-19T01:54:02;98566.58;;;15.23;55.62
78064;BME280;67429;51.596;-3.264;2023-09-19T01:56:34;98567.37;;;13.87;59.01
78064;BME280;67429;51.596;-3.264;2023-09-19T01:58:56;98563.25;;;14.36;59.09
78064;BME280;67429;51.596;-3.264;2023-09-19T02:01:20;98565.53;;;15.17;57.48
78064;BME280;67429;51.596;-3.264;2023-09-19T02:03:43;98563.76;;;13.60;62.77
78064;BME280;67429;51.596;-3.264;2023-09-19T02:06:08;98553.35;;;13.50;62.80
78064;BME280;67429;51.596;-3.264;2023-09-19T02:08:34;98555.04;;;13.78;63.22
78064;BME280;67429;51.596;-3.264;2023-09-19T02:10:59;98551.57;;;14.32;61.50
78064;BME280;67429;51.596;-3.264;2023-09-19T02:13:25;98546.38;;;13.43;63.92
78064;BME280;67429;51.596;-3.264;2023-09-19T02:15:51;98544.30;;;13.84;61.75
78064;BME280;67429;51.596;-3.264;2023-09-19T02:18:16;98550.01;;;14.55;61.66
78064;BME280;67429;51.596;-3.264;2023-09-19T02:20:41;98539.20;;;13.40;63.72
78064;BME280;67429;51.596;-3.264;2023-09-19T02:23:07;98554.70;;;12.37;68.15
78064;BME280;67429;51.596;-3.264;2023-09-19T02:25:32;98539.46;;;13.17;67.49
78064;BME280;67429;51.596;-3.264;2023-09-19T02:27:58;98546.79;;;12.40;69.47
78064;BME280;67429;51.596;-3.264;2023-09-19T02:30:23;98539.96;;;13.02;68.75
78064;BME280;67429;51.596;-3.264;2023-09-19T02:32:50;98527.26;;;12.97;67.87
78064;BME280;67429;51.596;-3.264;2023-09-19T02:35:14;98524.46;;;12.94;67.92
78064;BME280;67429;51.596;-3.264;2023-09-19T02:37:39;98532.30;;;13.65;66.60
78064;BME280;67429;51.596;-3.264;2023-09-19T02:40:06;98515.31;;;12.77;67.87
78064;BME280;67429;51.596;-3.264;2023-09-19T02:42:30;98515.66;;;12.57;68.25
78064;BME280;67429;51.596;-3.264;2023-09-19T02:44:55;98517.03;;;13.66;66.16
78064;BME280;67429;51.596;-3.264;2023-09-19T02:47:21;98516.07;;;12.09;69.91
78064;BME280;67429;51.596;-3.264;2023-09-19T02:49:46;98502.95;;;11.46;71.80
78064;BME280;67429;51.596;-3.264;2023-09-19T02:52:12;98501.54;;;11.95;70.46
78064;BME280;67429;51.596;-3.264;2023-09-19T02:54:37;98500.01;;;12.28;69.10
78064;BME280;67429;51.596;-3.264;2023-09-19T02:57:03;98491.61;;;12.65;68.74
78064;BME280;67429;51.596;-3.264;2023-09-19T02:59:28;98482.08;;;13.25;66.84
78064;BME280;67429;51.596;-3.264;2023-09-19T03:01:54;98469.02;;;12.89;66.11
78064;BME280;67429;51.596;-3.264;2023-09-19T03:04:19;98463.87;;;12.59;67.51
78064;BME280;67429;51.596;-3.264;2023-09-19T03:06:45;98461.23;;;12.88;68.44
78064;BME280;67429;51.596;-3.264;2023-09-19T03:09:11;98454.07;;;12.82;68.24
78064;BME280;67429;51.596;-3.264;2023-09-19T03:11:37;98453.00;;;13.07;68.06
78064;BME280;67429;51.596;-3.264;2023-09-19T03:14:02;98451.04;;;14.25;64.77
78064;BME280;67429;51.596;-3.264;2023-09-19T03:16:27;98452.49;;;13.61;65.46
78064;BME280;67429;51.596;-3.264;2023-09-19T03:18:54;98454.49;;;13.52;65.06
78064;BME280;67429;51.596;-3.264;2023-09-19T03:21:18;98447.20;;;13.39;66.36
78064;BME280;67429;51.596;-3.264;2023-09-19T03:23:43;98450.55;;;11.83;73.04
78064;BME280;67429;51.596;-3.264;2023-09-19T03:26:09;98450.67;;;12.28;73.05
78064;BME280;67429;51.596;-3.264;2023-09-19T03:28:36;98455.60;;;12.82;72.32
78064;BME280;67429;51.596;-3.264;2023-09-19T03:31:01;98452.59;;;12.66;71.73
78064;BME280;67429;51.596;-3.264;2023-09-19T03:33:25;98458.16;;;11.75;74.86
78064;BME280;67429;51.596;-3.264;2023-09-19T03:35:52;98474.06;;;12.63;73.79
78064;BME280;67429;51.596;-3.264;2023-09-19T03:38:16;98463.78;;;11.74;75.67
78064;BME280;67429;51.596;-3.264;2023-09-19T03:40:43;98453.63;;;12.78;73.43
78064;BME280;67429;51.596;-3.264;2023-09-19T03:43:09;98471.98;;;12.38;74.27
78064;BME280;67429;51.596;-3.264;2023-09-19T03:45:35;98462.93;;;11.94;76.52
78064;BME280;67429;51.596;-3.264;2023-09-19T03:48:00;98467.09;;;11.81;77.75
78064;BME280;67429;51.596;-3.264;2023-09-19T03:50:24;98457.77;;;11.33;79.65
78064;BME280;67429;51.596;-3.264;2023-09-19T03:52:49;98443.38;;;11.46;80.29
78064;BME280;67429;51.596;-3.264;2023-09-19T03:55:15;98437.61;;;11.68;80.07
78064;BME280;67429;51.596;-3.264;2023-09-19T03:57:40;98433.92;;;11.64;79.45
78064;BME280;67429;51.596;-3.264;2023-09-19T04:00:07;98431.87;;;10.95;82.73
78064;BME280;67429;51.596;-3.264;2023-09-19T04:02:33;98435.00;;;12.25;78.94
78064;BME280;67429;51.596;-3.264;2023-09-19T04:04:57;98444.88;;;10.69;83.98
78064;BME280;67429;51.596;-3.264;2023-09-19T04:07:22;98442.86;;;11.11;81.85
78064;BME280;67429;51.596;-3.264;2023-09-19T04:09:48;98437.63;;;11.76;78.73
78064;BME280;67429;51.596;-3.264;2023-09-19T04:12:15;98436.99;;;11.99;78.40
78064;BME280;67429;51.596;-3.264;2023-09-19T04:14:39;98439.63;;;11.15;81.35
78064;BME280;67429;51.596;-3.264;2023-09-19T04:17:05;98421.90;;;11.81;77.76
78064;BME280;67429;51.596;-3.264;2023-09-19T04:19:30;98424.03;;;11.88;77.38
78064;BME280;67429;51.596;-3.264;2023-09-19T04:21:56;98423.94;;;11.26;79.85
78064;BME280;67429;51.596;-3.264;2023-09-19T04:24:22;98416.22;;;11.63;78.10
78064;BME280;67429;51.596;-3.264;2023-09-19T04:26:47;98409.55;;;12.51;75.18
78064;BME280;67429;51.596;-3.264;2023-09-19T04:29:12;98405.31;;;11.63;77.13
78064;BME280;67429;51.596;-3.264;2023-09-19T04:31:38;98398.26;;;12.60;74.25
78064;BME280;67429;51.596;-3.264;2023-09-19T04:34:04;98400.73;;;12.51;74.18
78064;BME280;67429;51.596;-3.264;2023-09-19T04:36:29;98394.97;;;12.40;74.98
78064;BME280;67429;51.596;-3.264;2023-09-19T04:38:54;98394.29;;;11.34;78.97
78064;BME280;67429;51.596;-3.264;2023-09-19T04:41:20;98399.93;;;11.56;79.49
78064;BME280;67429;51.596;-3.264;2023-09-19T04:43:46;98384.13;;;11.96;78.32
78064;BME280;67429;51.596;-3.264;2023-09-19T04:46:11;98390.11;;;12.09;77.91
78064;BME280;67429;51.596;-3.264;2023-09-19T04:48:36;98377.10;;;12.18;76.55
78064;BME280;67429;51.596;-3.264;2023-09-19T04:51:02;98375.95;;;12.52;74.77
78064;BME280;67429;51.596;-3.264;2023-09-19T04:53:28;98370.47;;;11.98;78.40
78064;BME280;67429;51.596;-3.264;2023-09-19T04:55:53;98367.00;;;12.41;76.14
78064;BME280;67429;51.596;-3.264;2023-09-19T04:58:18;98369.16;;;12.30;76.33
78064;BME280;67429;51.596;-3.264;2023-09-19T05:00:43;98364.04;;;12.60;74.17
78064;BME280;67429;51.596;-3.264;2023-09-19T05:03:09;98359.91;;;12.84;74.27
78064;BME280;67429;51.596;-3.264;2023-09-19T05:05:35;98372.75;;;12.95;74.92
78064;BME280;67429;51.596;-3.264;2023-09-19T05:08:00;98352.93;;;11.97;77.65
78064;BME280;67429;51.596;-3.264;2023-09-19T05:10:26;98360.53;;;11.85;78.99
78064;BME280;67429;51.596;-3.264;2023-09-19T05:12:53;98351.20;;;11.94;78.33
78064;BME280;67429;51.596;-3.264;2023-09-19T05:15:17;98346.20;;;11.83;77.40
78064;BME280;67429;51.596;-3.264;2023-09-19T05:17:48;98338.92;;;12.51;77.39
78064;BME280;67429;51.596;-3.264;2023-09-19T05:20:08;98329.87;;;12.68;76.68
78064;BME280;67429;51.596;-3.264;2023-09-19T05:22:33;98331.17;;;12.84;74.77
78064;BME280;67429;51.596;-3.264;2023-09-19T05:24:59;98333.39;;;14.07;71.15
78064;BME280;67429;51.596;-3.264;2023-09-19T05:27:25;98328.88;;;13.25;72.18
78064;BME280;67429;51.596;-3.264;2023-09-19T05:29:50;98347.73;;;13.81;71.62
78064;BME280;67429;51.596;-3.264;2023-09-19T05:32:15;98345.78;;;12.13;76.64
78064;BME280;67429;51.596;-3.264;2023-09-19T05:34:40;98328.49;;;11.94;78.60
78064;BME280;67429;51.596;-3.264;2023-09-19T05:37:06;98316.39;;;10.80;82.68
78064;BME280;67429;51.596;-3.264;2023-09-19T05:39:33;98322.43;;;11.22;83.14
78064;BME280;67429;51.596;-3.264;2023-09-19T05:41:57;98321.38;;;11.02;85.57
78064;BME280;67429;51.596;-3.264;2023-09-19T05:44:22;98330.96;;;11.07;85.00
78064;BME280;67429;51.596;-3.264;2023-09-19T05:46:47;98309.60;;;11.35;83.35
78064;BME280;67429;51.596;-3.264;2023-09-19T05:49:13;98323.77;;;11.85;81.46
78064;BME280;67429;51.596;-3.264;2023-09-19T05:51:39;98322.23;;;12.18;79.98
78064;BME280;67429;51.596;-3.264;2023-09-19T05:54:04;98335.11;;;11.90;80.42
78064;BME280;67429;51.596;-3.264;2023-09-19T05:56:30;98323.59;;;11.75;81.89
78064;BME280;67429;51.596;-3.264;2023-09-19T05:58:55;98324.42;;;11.45;82.41
78064;BME280;67429;51.596;-3.264;2023-09-19T06:01:21;98316.93;;;11.50;83.29
78064;BME280;67429;51.596;-3.264;2023-09-19T06:03:47;98333.21;;;12.10;80.91
78064;BME280;67429;51.596;-3.264;2023-09-19T06:06:12;98308.25;;;12.03;80.51
78064;BME280;67429;51.596;-3.264;2023-09-19T06:08:37;98310.49;;;11.77;81.40
78064;BME280;67429;51.596;-3.264;2023-09-19T06:11:02;98307.74;;;11.14;83.90
78064;BME280;67429;51.596;-3.264;2023-09-19T06:13:28;98316.60;;;11.82;81.88
78064;BME280;67429;51.596;-3.264;2023-09-19T06:15:54;98303.75;;;11.32;82.92
78064;BME280;67429;51.596;-3.264;2023-09-19T06:18:19;98313.34;;;11.01;86.09
78064;BME280;67429;51.596;-3.264;2023-09-19T06:20:45;98309.65;;;11.38;87.04
78064;BME280;67429;51.596;-3.264;2023-09-19T06:23:10;98309.79;;;11.38;86.71
78064;BME280;67429;51.596;-3.264;2023-09-19T06:25:36;98318.36;;;11.65;84.68
78064;BME280;67429;51.596;-3.264;2023-09-19T06:28:01;98316.81;;;11.73;84.13
78064;BME280;67429;51.596;-3.264;2023-09-19T06:30:26;98330.37;;;11.90;85.40
78064;BME280;67429;51.596;-3.264;2023-09-19T06:32:56;98397.77;;;11.20;86.94
78064;BME280;67429;51.596;-3.264;2023-09-19T06:35:17;98336.89;;;10.90;87.36
78064;BME280;67429;51.596;-3.264;2023-09-19T06:37:43;98345.89;;;10.91;86.27
78064;BME280;67429;51.596;-3.264;2023-09-19T06:40:09;98332.60;;;10.63;88.60
78064;BME280;67429;51.596;-3.264;2023-09-19T06:42:34;98329.08;;;11.43;87.20
78064;BME280;67429;51.596;-3.264;2023-09-19T06:45:00;98322.78;;;11.14;87.69
78064;BME280;67429;51.596;-3.264;2023-09-19T06:47:24;98310.62;;;11.51;86.97
78064;BME280;67429;51.596;-3.264;2023-09-19T06:49:50;98318.32;;;10.88;89.30
78064;BME280;67429;51.596;-3.264;2023-09-19T06:52:20;98313.08;;;11.04;89.68
78064;BME280;67429;51.596;-3.264;2023-09-19T06:54:42;98306.60;;;11.30;88.55
78064;BME280;67429;51.596;-3.264;2023-09-19T06:57:07;98310.46;;;10.93;87.91
78064;BME280;67429;51.596;-3.264;2023-09-19T06:59:32;98307.88;;;11.36;87.60
78064;BME280;67429;51.596;-3.264;2023-09-19T07:01:58;98299.59;;;11.22;87.34
78064;BME280;67429;51.596;-3.264;2023-09-19T07:04:23;98298.34;;;11.73;87.00
78064;BME280;67429;51.596;-3.264;2023-09-19T07:06:49;98294.98;;;11.94;82.71
78064;BME280;67429;51.596;-3.264;2023-09-19T07:09:14;98300.20;;;11.65;83.87
78064;BME280;67429;51.596;-3.264;2023-09-19T07:11:40;98305.69;;;11.56;84.98
78064;BME280;67429;51.596;-3.264;2023-09-19T07:14:05;98302.06;;;11.49;83.80
78064;BME280;67429;51.596;-3.264;2023-09-19T07:16:31;98305.33;;;11.52;85.96
78064;BME280;67429;51.596;-3.264;2023-09-19T07:18:56;98283.75;;;10.99;88.34
78064;BME280;67429;51.596;-3.264;2023-09-19T07:21:21;98291.16;;;11.49;89.20
78064;BME280;67429;51.596;-3.264;2023-09-19T07:23:47;98301.77;;;11.33;89.04
78064;BME280;67429;51.596;-3.264;2023-09-19T07:26:12;98293.46;;;11.54;87.47
78064;BME280;67429;51.596;-3.264;2023-09-19T07:28:37;98282.17;;;11.35;88.55
78064;BME280;67429;51.596;-3.264;2023-09-19T07:31:03;98285.43;;;11.94;85.58
78064;BME280;67429;51.596;-3.264;2023-09-19T07:33:28;98283.18;;;12.35;82.13
78064;BME280;67429;51.596;-3.264;2023-09-19T07:35:55;98278.01;;;11.55;84.79
78064;BME280;67429;51.596;-3.264;2023-09-19T07:38:20;98284.67;;;12.42;83.25
78064;BME280;67429;51.596;-3.264;2023-09-19T07:40:47;98278.58;;;11.56;86.62
78064;BME280;67429;51.596;-3.264;2023-09-19T07:43:11;98279.33;;;12.11;84.73
78064;BME280;67429;51.596;-3.264;2023-09-19T07:45:36;98286.32;;;11.39;88.32
78064;BME280;67429;51.596;-3.264;2023-09-19T07:48:02;98297.30;;;12.15;85.96
78064;BME280;67429;51.596;-3.264;2023-09-19T07:50:28;98276.99;;;11.61;87.87
78064;BME280;67429;51.596;-3.264;2023-09-19T07:52:55;98284.14;;;11.24;91.24
78064;BME280;67429;51.596;-3.264;2023-09-19T07:55:20;98268.35;;;11.98;88.49
78064;BME280;67429;51.596;-3.264;2023-09-19T07:57:44;98277.50;;;11.47;89.69
78064;BME280;67429;51.596;-3.264;2023-09-19T08:00:10;98285.85;;;12.10;88.27
78064;BME280;67429;51.596;-3.264;2023-09-19T08:02:35;98283.39;;;12.28;84.09
78064;BME280;67429;51.596;-3.264;2023-09-19T08:05:00;98288.62;;;11.83;87.24
78064;BME280;67429;51.596;-3.264;2023-09-19T08:07:26;98272.96;;;11.84;86.95
78064;BME280;67429;51.596;-3.264;2023-09-19T08:09:52;98292.13;;;12.03;85.51
78064;BME280;67429;51.596;-3.264;2023-09-19T08:12:19;98281.32;;;12.47;86.06
78064;BME280;67429;51.596;-3.264;2023-09-19T08:14:43;98278.75;;;11.50;88.76
78064;BME280;67429;51.596;-3.264;2023-09-19T08:17:08;98278.09;;;11.58;87.26
78064;BME280;67429;51.596;-3.264;2023-09-19T08:19:34;98281.11;;;12.57;84.32
78064;BME280;67429;51.596;-3.264;2023-09-19T08:22:00;98279.98;;;12.31;84.49
78064;BME280;67429;51.596;-3.264;2023-09-19T08:24:26;98270.94;;;11.90;87.21
78064;BME280;67429;51.596;-3.264;2023-09-19T08:26:50;98285.90;;;11.87;87.59
78064;BME280;67429;51.596;-3.264;2023-09-19T08:29:17;98259.24;;;12.01;88.51
78064;BME280;67429;51.596;-3.264;2023-09-19T08:31:41;98278.35;;;12.09;87.55
78064;BME280;67429;51.596;-3.264;2023-09-19T08:34:06;98282.76;;;11.83;88.33
78064;BME280;67429;51.596;-3.264;2023-09-19T08:36:32;98283.01;;;12.34;86.21
78064;BME280;67429;51.596;-3.264;2023-09-19T08:38:57;98269.74;;;12.08;87.00
78064;BME280;67429;51.596;-3.264;2023-09-19T08:41:23;98297.20;;;12.34;86.45
78064;BME280;67429;51.596;-3.264;2023-09-19T08:43:48;98274.00;;;12.08;89.23
78064;BME280;67429;51.596;-3.264;2023-09-19T08:46:15;98286.86;;;12.14;87.69
78064;BME280;67429;51.596;-3.264;2023-09-19T08:48:45;98266.69;;;12.01;89.61
78064;BME280;67429;51.596;-3.264;2023-09-19T08:51:07;98262.66;;;12.54;87.53
78064;BME280;67429;51.596;-3.264;2023-09-19T08:53:41;98274.57;;;12.37;87.49
78064;BME280;67429;51.596;-3.264;2023-09-19T08:55:56;98265.75;;;12.49;88.82
78064;BME280;67429;51.596;-3.264;2023-09-19T08:58:22;98294.85;;;12.61;87.80
78064;BME280;67429;51.596;-3.264;2023-09-19T09:00:48;98272.08;;;12.13;90.78
78064;BME280;67429;51.596;-3.264;2023-09-19T09:03:15;98272.25;;;12.82;88.96
78064;BME280;67429;51.596;-3.264;2023-09-19T09:05:39;98269.74;;;12.48;87.57
78064;BME280;67429;51.596;-3.264;2023-09-19T09:08:05;98276.55;;;13.09;86.12
78064;BME280;67429;51.596;-3.264;2023-09-19T09:10:29;98278.19;;;12.61;88.07
78064;BME280;67429;51.596;-3.264;2023-09-19T09:12:55;98267.77;;;12.48;90.86
78064;BME280;67429;51.596;-3.264;2023-09-19T09:15:21;98267.55;;;11.96;90.81
78064;BME280;67429;51.596;-3.264;2023-09-19T09:17:47;98277.54;;;12.48;90.17
78064;BME280;67429;51.596;-3.264;2023-09-19T09:20:12;98271.92;;;12.79;87.75
78064;BME280;67429;51.596;-3.264;2023-09-19T09:22:38;98287.58;;;12.81;88.19
78064;BME280;67429;51.596;-3.264;2023-09-19T09:25:02;98271.10;;;12.50;91.62
78064;BME280;67429;51.596;-3.264;2023-09-19T09:27:28;98274.14;;;12.30;92.93
78064;BME280;67429;51.596;-3.264;2023-09-19T09:29:54;98281.78;;;12.64;91.94
78064;BME280;67429;51.596;-3.264;2023-09-19T09:32:21;98284.81;;;12.01;92.89
78064;BME280;67429;51.596;-3.264;2023-09-19T09:34:44;98280.65;;;13.24;88.57
78064;BME280;67429;51.596;-3.264;2023-09-19T09:37:14;98280.81;;;13.04;88.58
78064;BME280;67429;51.596;-3.264;2023-09-19T09:39:35;98291.92;;;13.17;87.21
78064;BME280;67429;51.596;-3.264;2023-09-19T09:42:01;98270.26;;;12.82;89.34
78064;BME280;67429;51.596;-3.264;2023-09-19T09:44:26;98272.01;;;12.75;88.49
78064;BME280;67429;51.596;-3.264;2023-09-19T09:46:52;98288.33;;;12.79;89.15
78064;BME280;67429;51.596;-3.264;2023-09-19T09:49:22;98275.33;;;12.70;89.45
78064;BME280;67429;51.596;-3.264;2023-09-19T09:51:44;98268.39;;;13.11;87.83
78064;BME280;67429;51.596;-3.264;2023-09-19T09:54:13;98278.45;;;12.34;90.49
78064;BME280;67429;51.596;-3.264;2023-09-19T09:56:33;98266.03;;;12.94;89.67
78064;BME280;67429;51.596;-3.264;2023-09-19T09:58:59;98270.64;;;12.59;90.75
78064;BME280;67429;51.596;-3.264;2023-09-19T10:01:24;98265.78;;;12.88;89.93
78064;BME280;67429;51.596;-3.264;2023-09-19T10:03:50;98262.16;;;12.37;92.32
78064;BME280;67429;51.596;-3.264;2023-09-19T10:06:17;98252.39;;;12.69;92.78
78064;BME280;67429;51.596;-3.264;2023-09-19T10:11:16;98254.57;;;12.35;93.21
78064;BME280;67429;51.596;-3.264;2023-09-19T10:13:36;98259.74;;;12.44;92.44
78064;BME280;67429;51.596;-3.264;2023-09-19T10:15:59;98256.32;;;13.26;89.26
78064;BME280;67429;51.596;-3.264;2023-09-19T10:18:24;98252.96;;;13.08;89.86
78064;BME280;67429;51.596;-3.264;2023-09-19T10:20:49;98237.21;;;12.79;90.20
78064;BME280;67429;51.596;-3.264;2023-09-19T10:23:16;98264.88;;;12.45;92.49
78064;BME280;67429;51.596;-3.264;2023-09-19T10:25:42;98253.01;;;12.67;91.91
78064;BME280;67429;51.596;-3.264;2023-09-19T10:28:07;98261.46;;;12.81;92.61
78064;BME280;67429;51.596;-3.264;2023-09-19T10:30:33;98268.43;;;12.55;92.86
78064;BME280;67429;51.596;-3.264;2023-09-19T10:33:00;98278.84;;;12.90;92.79
78064;BME280;67429;51.596;-3.264;2023-09-19T10:35:23;98276.18;;;12.66;93.36
78064;BME280;67429;51.596;-3.264;2023-09-19T10:37:50;98262.35;;;12.40;94.29
78064;BME280;67429;51.596;-3.264;2023-09-19T10:40:13;98267.38;;;12.55;93.53
78064;BME280;67429;51.596;-3.264;2023-09-19T10:42:38;98269.75;;;12.79;91.15
78064;BME280;67429;51.596;-3.264;2023-09-19T10:45:08;98257.78;;;12.83;92.14
78064;BME280;67429;51.596;-3.264;2023-09-19T10:47:29;98259.31;;;13.42;90.73
78064;BME280;67429;51.596;-3.264;2023-09-19T10:49:56;98280.66;;;13.35;90.13
78064;BME280;67429;51.596;-3.264;2023-09-19T10:52:25;98270.08;;;13.38;90.92
78064;BME280;67429;51.596;-3.264;2023-09-19T10:54:48;98281.11;;;13.28;90.53
78064;BME280;67429;51.596;-3.264;2023-09-19T10:57:11;98268.75;;;13.15;91.26
78064;BME280;67429;51.596;-3.264;2023-09-19T10:59:36;98255.18;;;13.26;88.36
78064;BME280;67429;51.596;-3.264;2023-09-19T11:04:29;98270.58;;;13.89;86.85
78064;BME280;67429;51.596;-3.264;2023-09-19T11:07:00;98281.38;;;13.48;88.06
78064;BME280;67429;51.596;-3.264;2023-09-19T11:09:18;98272.01;;;13.13;90.56
78064;BME280;67429;51.596;-3.264;2023-09-19T11:11:46;98273.57;;;13.42;88.28
78064;BME280;67429;51.596;-3.264;2023-09-19T11:14:14;98280.58;;;13.79;87.12
78064;BME280;67429;51.596;-3.264;2023-09-19T11:16:34;98290.76;;;13.49;88.26
78064;BME280;67429;51.596;-3.264;2023-09-19T11:19:00;98275.21;;;13.73;86.64
78064;BME280;67429;51.596;-3.264;2023-09-19T11:21:40;98277.40;;;13.57;87.73
78064;BME280;67429;51.596;-3.264;2023-09-19T11:28:42;98266.48;;;12.97;89.32
78064;BME280;67429;51.596;-3.264;2023-09-19T11:33:33;98268.54;;;13.59;88.34
78064;BME280;67429;51.596;-3.264;2023-09-19T11:36:00;98279.38;;;13.47;87.74
78064;BME280;67429;51.596;-3.264;2023-09-19T11:43:28;98268.46;;;13.15;88.12
78064;BME280;67429;51.596;-3.264;2023-09-19T11:48:07;98291.08;;;13.48;87.31
78064;BME280;67429;51.596;-3.264;2023-09-19T11:50:31;98273.57;;;12.93;88.40
78064;BME280;67429;51.596;-3.264;2023-09-19T11:52:57;98281.99;;;12.97;89.21
78064;BME280;67429;51.596;-3.264;2023-09-19T11:55:22;98280.84;;;13.64;87.88
78064;BME280;67429;51.596;-3.264;2023-09-19T11:57:48;98261.50;;;13.11;87.52
78064;BME280;67429;51.596;-3.264;2023-09-19T12:00:18;98284.07;;;13.79;86.66
78064;BME280;67429;51.596;-3.264;2023-09-19T12:02:39;98280.90;;;13.54;86.76
78064;BME280;67429;51.596;-3.264;2023-09-19T12:05:04;98298.61;;;13.05;89.34
78064;BME280;67429;51.596;-3.264;2023-09-19T12:07:29;98287.30;;;12.94;91.15
78064;BME280;67429;51.596;-3.264;2023-09-19T12:10:04;98293.70;;;13.23;90.47
78064;BME280;67429;51.596;-3.264;2023-09-19T12:12:23;98291.48;;;12.82;90.39
78064;BME280;67429;51.596;-3.264;2023-09-19T12:14:50;98296.17;;;13.57;87.96
78064;BME280;67429;51.596;-3.264;2023-09-19T12:17:11;98299.40;;;12.94;88.16
78064;BME280;67429;51.596;-3.264;2023-09-19T12:19:37;98293.14;;;12.40;89.38
78064;BME280;67429;51.596;-3.264;2023-09-19T12:22:03;98292.87;;;12.15;89.80
78064;BME280;67429;51.596;-3.264;2023-09-19T12:24:27;98289.41;;;12.34;89.36
78064;BME280;67429;51.596;-3.264;2023-09-19T12:26:53;98302.21;;;12.29;91.41
78064;BME280;67429;51.596;-3.264;2023-09-19T12:29:20;98306.02;;;12.99;88.98
78064;BME280;67429;51.596;-3.264;2023-09-19T12:31:50;98303.14;;;13.57;87.91
78064;BME280;67429;51.596;-3.264;2023-09-19T12:34:09;98291.15;;;13.21;89.54
78064;BME280;67429;51.596;-3.264;2023-09-19T12:36:34;98308.73;;;13.66;85.72
78064;BME280;67429;51.596;-3.264;2023-09-19T12:39:00;98298.80;;;13.26;86.03
78064;BME280;67429;51.596;-3.264;2023-09-19T12:41:26;98311.34;;;13.03;87.18
78064;BME280;67429;51.596;-3.264;2023-09-19T12:43:51;98297.21;;;13.14;86.49
78064;BME280;67429;51.596;-3.264;2023-09-19T12:46:21;98301.34;;;13.68;86.05
78064;BME280;67429;51.596;-3.264;2023-09-19T12:48:42;98288.78;;;14.25;82.72
78064;BME280;67429;51.596;-3.264;2023-09-19T12:51:10;98289.96;;;13.52;83.84
78064;BME280;67429;51.596;-3.264;2023-09-19T12:53:33;98289.38;;;13.95;82.84
78064;BME280;67429;51.596;-3.264;2023-09-19T12:55:59;98284.96;;;13.55;84.57
78064;BME280;67429;51.596;-3.264;2023-09-19T12:58:23;98282.69;;;13.30;85.62